sensor_id;sensor_type;location;lat;lon;timestamp;P1;durP1;ratioP1;P2;durP2;ratioP2
61200;SDS011;47065;52.898;6.992;2022-12-18T00:01:04;173.35;;;50.33;;
61200;SDS011;47065;52.898;6.992;2022-12-18T00:03:37;166.55;;;48.20;;
61200;SDS011;47065;52.898;6.992;2022-12-18T00:06:02;162.80;;;49.78;;
61200;SDS011;47065;52.898;6.992;2022-12-18T00:08:28;167.77;;;50.17;;
61200;SDS011;47065;52.898;6.992;2022-12-18T00:10:54;179.25;;;51.55;;
61200;SDS011;47065;52.898;6.992;2022-12-18T00:13:19;185.82;;;53.38;;
61200;SDS011;47065;52.898;6.992;2022-12-18T00:15:45;162.60;;;50.15;;
61200;SDS011;47065;52.898;6.992;2022-12-18T00:18:11;159.65;;;50.45;;
61200;SDS011;47065;52.898;6.992;2022-12-18T00:20:37;180.43;;;57.00;;
61200;SDS011;47065;52.898;6.992;2022-12-18T00:23:04;174.32;;;50.05;;
61200;SDS011;47065;52.898;6.992;2022-12-18T00:25:34;161.00;;;50.00;;
61200;SDS011;47065;52.898;6.992;2022-12-18T00:28:01;141.55;;;47.17;;
61200;SDS011;47065;52.898;6.992;2022-12-18T00:30:27;143.82;;;45.15;;
61200;SDS011;47065;52.898;6.992;2022-12-18T00:32:53;137.15;;;43.88;;
61200;SDS011;47065;52.898;6.992;2022-12-18T00:35:18;135.07;;;44.00;;
61200;SDS011;47065;52.898;6.992;2022-12-18T00:37:44;131.15;;;44.53;;
61200;SDS011;47065;52.898;6.992;2022-12-18T00:40:10;117.95;;;43.28;;
61200;SDS011;47065;52.898;6.992;2022-12-18T00:42:36;113.95;;;40.30;;
61200;SDS011;47065;52.898;6.992;2022-12-18T00:45:24;115.03;;;39.50;;
61200;SDS011;47065;52.898;6.992;2022-12-18T00:47:55;145.15;;;43.30;;
61200;SDS011;47065;52.898;6.992;2022-12-18T00:50:21;122.00;;;42.03;;
61200;SDS011;47065;52.898;6.992;2022-12-18T00:52:48;126.93;;;41.72;;
61200;SDS011;47065;52.898;6.992;2022-12-18T00:55:13;115.07;;;39.10;;
61200;SDS011;47065;52.898;6.992;2022-12-18T00:57:39;112.07;;;43.72;;
61200;SDS011;47065;52.898;6.992;2022-12-18T01:00:06;121.32;;;42.97;;
61200;SDS011;47065;52.898;6.992;2022-12-18T01:02:34;120.03;;;45.35;;
61200;SDS011;47065;52.898;6.992;2022-12-18T01:04:59;135.07;;;43.33;;
61200;SDS011;47065;52.898;6.992;2022-12-18T01:07:26;122.10;;;42.03;;
61200;SDS011;47065;52.898;6.992;2022-12-18T01:09:51;147.50;;;45.90;;
61200;SDS011;47065;52.898;6.992;2022-12-18T01:12:17;120.95;;;43.22;;
61200;SDS011;47065;52.898;6.992;2022-12-18T01:14:43;116.50;;;41.65;;
61200;SDS011;47065;52.898;6.992;2022-12-18T01:17:08;127.82;;;42.67;;
61200;SDS011;47065;52.898;6.992;2022-12-18T01:19:34;144.50;;;45.10;;
61200;SDS011;47065;52.898;6.992;2022-12-18T01:21:59;123.80;;;43.35;;
61200;SDS011;47065;52.898;6.992;2022-12-18T01:24:25;140.05;;;47.60;;
61200;SDS011;47065;52.898;6.992;2022-12-18T01:26:51;123.32;;;45.35;;
61200;SDS011;47065;52.898;6.992;2022-12-18T01:29:16;147.65;;;45.63;;
61200;SDS011;47065;52.898;6.992;2022-12-18T01:31:42;145.73;;;45.35;;
61200;SDS011;47065;52.898;6.992;2022-12-18T01:34:19;138.75;;;44.75;;
61200;SDS011;47065;52.898;6.992;2022-12-18T01:36:45;141.93;;;44.70;;
61200;SDS011;47065;52.898;6.992;2022-12-18T01:39:11;146.75;;;46.13;;
61200;SDS011;47065;52.898;6.992;2022-12-18T01:41:38;159.77;;;50.50;;
61200;SDS011;47065;52.898;6.992;2022-12-18T01:47:40;172.60;;;48.28;;
61200;SDS011;47065;52.898;6.992;2022-12-18T01:50:13;161.63;;;50.35;;
61200;SDS011;47065;52.898;6.992;2022-12-18T01:52:42;143.23;;;43.47;;
61200;SDS011;47065;52.898;6.992;2022-12-18T01:55:12;120.38;;;41.60;;
61200;SDS011;47065;52.898;6.992;2022-12-18T01:57:44;120.88;;;41.38;;
61200;SDS011;47065;52.898;6.992;2022-12-18T02:00:15;116.50;;;40.08;;
61200;SDS011;47065;52.898;6.992;2022-12-18T02:02:45;109.05;;;39.45;;
61200;SDS011;47065;52.898;6.992;2022-12-18T02:05:12;120.18;;;40.42;;
61200;SDS011;47065;52.898;6.992;2022-12-18T02:13:15;100.03;;;36.78;;
61200;SDS011;47065;52.898;6.992;2022-12-18T02:18:20;91.65;;;35.92;;
61200;SDS011;47065;52.898;6.992;2022-12-18T02:26:45;88.68;;;31.05;;
61200;SDS011;47065;52.898;6.992;2022-12-18T02:29:29;84.55;;;32.53;;
61200;SDS011;47065;52.898;6.992;2022-12-18T02:31:59;84.00;;;34.60;;
61200;SDS011;47065;52.898;6.992;2022-12-18T02:34:26;74.72;;;29.35;;
61200;SDS011;47065;52.898;6.992;2022-12-18T02:36:55;78.70;;;29.20;;
61200;SDS011;47065;52.898;6.992;2022-12-18T02:39:23;76.15;;;28.27;;
61200;SDS011;47065;52.898;6.992;2022-12-18T02:41:51;76.88;;;28.60;;
61200;SDS011;47065;52.898;6.992;2022-12-18T02:44:17;87.57;;;30.42;;
61200;SDS011;47065;52.898;6.992;2022-12-18T02:46:52;86.63;;;29.15;;
61200;SDS011;47065;52.898;6.992;2022-12-18T03:04:14;99.22;;;32.53;;
61200;SDS011;47065;52.898;6.992;2022-12-18T03:06:47;94.57;;;34.03;;
61200;SDS011;47065;52.898;6.992;2022-12-18T03:09:20;97.47;;;31.33;;
61200;SDS011;47065;52.898;6.992;2022-12-18T03:11:54;91.72;;;32.75;;
61200;SDS011;47065;52.898;6.992;2022-12-18T03:14:42;90.40;;;32.40;;
61200;SDS011;47065;52.898;6.992;2022-12-18T03:17:13;89.95;;;31.65;;
61200;SDS011;47065;52.898;6.992;2022-12-18T03:19:42;84.43;;;32.17;;
61200;SDS011;47065;52.898;6.992;2022-12-18T03:22:10;97.53;;;32.33;;
61200;SDS011;47065;52.898;6.992;2022-12-18T03:24:38;94.85;;;33.05;;
61200;SDS011;47065;52.898;6.992;2022-12-18T03:27:06;95.55;;;31.08;;
61200;SDS011;47065;52.898;6.992;2022-12-18T03:29:36;89.18;;;30.90;;
61200;SDS011;47065;52.898;6.992;2022-12-18T03:32:07;95.43;;;31.00;;
61200;SDS011;47065;52.898;6.992;2022-12-18T03:34:42;90.22;;;32.80;;
61200;SDS011;47065;52.898;6.992;2022-12-18T03:37:09;79.60;;;29.55;;
61200;SDS011;47065;52.898;6.992;2022-12-18T03:39:35;71.35;;;29.60;;
61200;SDS011;47065;52.898;6.992;2022-12-18T03:42:13;79.18;;;30.00;;
61200;SDS011;47065;52.898;6.992;2022-12-18T03:45:09;70.35;;;27.25;;
61200;SDS011;47065;52.898;6.992;2022-12-18T03:50:39;75.63;;;28.42;;
61200;SDS011;47065;52.898;6.992;2022-12-18T03:55:51;71.43;;;29.60;;
61200;SDS011;47065;52.898;6.992;2022-12-18T03:58:19;83.10;;;29.58;;
61200;SDS011;47065;52.898;6.992;2022-12-18T04:00:48;66.85;;;28.23;;
61200;SDS011;47065;52.898;6.992;2022-12-18T04:03:16;73.47;;;29.33;;
61200;SDS011;47065;52.898;6.992;2022-12-18T04:05:44;69.97;;;26.95;;
61200;SDS011;47065;52.898;6.992;2022-12-18T04:08:12;65.95;;;26.83;;
61200;SDS011;47065;52.898;6.992;2022-12-18T04:10:39;61.22;;;25.60;;
61200;SDS011;47065;52.898;6.992;2022-12-18T04:13:04;70.78;;;24.90;;
61200;SDS011;47065;52.898;6.992;2022-12-18T04:15:31;73.13;;;27.65;;
61200;SDS011;47065;52.898;6.992;2022-12-18T04:17:59;68.18;;;27.63;;
61200;SDS011;47065;52.898;6.992;2022-12-18T04:20:25;75.75;;;25.95;;
61200;SDS011;47065;52.898;6.992;2022-12-18T04:22:50;62.00;;;25.52;;
61200;SDS011;47065;52.898;6.992;2022-12-18T04:25:16;66.22;;;24.88;;
61200;SDS011;47065;52.898;6.992;2022-12-18T04:27:42;57.05;;;24.50;;
61200;SDS011;47065;52.898;6.992;2022-12-18T04:30:08;70.03;;;25.42;;
61200;SDS011;47065;52.898;6.992;2022-12-18T04:32:34;70.40;;;25.90;;
61200;SDS011;47065;52.898;6.992;2022-12-18T04:35:00;56.50;;;25.67;;
61200;SDS011;47065;52.898;6.992;2022-12-18T04:37:25;62.50;;;24.10;;
61200;SDS011;47065;52.898;6.992;2022-12-18T04:39:51;58.10;;;22.40;;
61200;SDS011;47065;52.898;6.992;2022-12-18T04:42:17;55.30;;;21.42;;
61200;SDS011;47065;52.898;6.992;2022-12-18T04:44:42;58.03;;;24.13;;
61200;SDS011;47065;52.898;6.992;2022-12-18T04:47:08;60.38;;;24.10;;
61200;SDS011;47065;52.898;6.992;2022-12-18T04:49:33;52.70;;;21.63;;
61200;SDS011;47065;52.898;6.992;2022-12-18T04:51:59;54.60;;;22.58;;
61200;SDS011;47065;52.898;6.992;2022-12-18T04:54:25;51.78;;;22.15;;
61200;SDS011;47065;52.898;6.992;2022-12-18T04:56:50;56.25;;;24.17;;
61200;SDS011;47065;52.898;6.992;2022-12-18T04:59:16;56.13;;;22.35;;
61200;SDS011;47065;52.898;6.992;2022-12-18T05:01:41;51.83;;;22.98;;
61200;SDS011;47065;52.898;6.992;2022-12-18T05:04:07;52.85;;;21.05;;
61200;SDS011;47065;52.898;6.992;2022-12-18T05:06:33;60.83;;;23.40;;
61200;SDS011;47065;52.898;6.992;2022-12-18T05:08:59;55.65;;;21.90;;
61200;SDS011;47065;52.898;6.992;2022-12-18T05:11:24;55.08;;;21.42;;
61200;SDS011;47065;52.898;6.992;2022-12-18T05:13:50;55.75;;;22.30;;
61200;SDS011;47065;52.898;6.992;2022-12-18T05:16:15;57.20;;;22.05;;
61200;SDS011;47065;52.898;6.992;2022-12-18T05:18:41;54.22;;;21.15;;
61200;SDS011;47065;52.898;6.992;2022-12-18T05:21:07;63.90;;;21.02;;
61200;SDS011;47065;52.898;6.992;2022-12-18T05:23:36;50.15;;;23.27;;
61200;SDS011;47065;52.898;6.992;2022-12-18T05:26:03;58.60;;;22.65;;
61200;SDS011;47065;52.898;6.992;2022-12-18T05:28:30;54.15;;;21.98;;
61200;SDS011;47065;52.898;6.992;2022-12-18T05:30:58;57.97;;;23.48;;
61200;SDS011;47065;52.898;6.992;2022-12-18T05:33:25;51.35;;;23.85;;
61200;SDS011;47065;52.898;6.992;2022-12-18T05:35:54;50.17;;;22.48;;
61200;SDS011;47065;52.898;6.992;2022-12-18T05:38:23;51.78;;;21.85;;
61200;SDS011;47065;52.898;6.992;2022-12-18T05:40:50;59.72;;;22.65;;
61200;SDS011;47065;52.898;6.992;2022-12-18T05:43:17;58.95;;;24.98;;
61200;SDS011;47065;52.898;6.992;2022-12-18T05:45:44;48.03;;;20.95;;
61200;SDS011;47065;52.898;6.992;2022-12-18T05:48:13;53.38;;;21.70;;
61200;SDS011;47065;52.898;6.992;2022-12-18T05:50:40;57.88;;;23.00;;
61200;SDS011;47065;52.898;6.992;2022-12-18T05:53:08;52.75;;;22.38;;
61200;SDS011;47065;52.898;6.992;2022-12-18T05:55:37;53.90;;;22.23;;
61200;SDS011;47065;52.898;6.992;2022-12-18T05:58:06;47.83;;;20.55;;
61200;SDS011;47065;52.898;6.992;2022-12-18T06:00:33;44.47;;;20.67;;
61200;SDS011;47065;52.898;6.992;2022-12-18T06:03:00;53.13;;;21.02;;
61200;SDS011;47065;52.898;6.992;2022-12-18T06:05:27;47.20;;;20.88;;
61200;SDS011;47065;52.898;6.992;2022-12-18T06:07:52;45.90;;;20.08;;
61200;SDS011;47065;52.898;6.992;2022-12-18T06:10:18;47.30;;;20.17;;
61200;SDS011;47065;52.898;6.992;2022-12-18T06:12:44;49.80;;;20.77;;
61200;SDS011;47065;52.898;6.992;2022-12-18T06:15:10;45.65;;;21.00;;
61200;SDS011;47065;52.898;6.992;2022-12-18T06:17:35;46.20;;;20.63;;
61200;SDS011;47065;52.898;6.992;2022-12-18T06:20:01;43.50;;;21.10;;
61200;SDS011;47065;52.898;6.992;2022-12-18T06:22:30;46.00;;;18.40;;
61200;SDS011;47065;52.898;6.992;2022-12-18T06:24:56;47.65;;;20.02;;
61200;SDS011;47065;52.898;6.992;2022-12-18T06:27:22;43.17;;;19.88;;
61200;SDS011;47065;52.898;6.992;2022-12-18T06:29:48;50.55;;;20.95;;
61200;SDS011;47065;52.898;6.992;2022-12-18T06:32:13;45.45;;;17.77;;
61200;SDS011;47065;52.898;6.992;2022-12-18T06:34:39;40.72;;;18.23;;
61200;SDS011;47065;52.898;6.992;2022-12-18T06:37:05;49.47;;;19.08;;
61200;SDS011;47065;52.898;6.992;2022-12-18T06:39:30;48.90;;;21.30;;
61200;SDS011;47065;52.898;6.992;2022-12-18T06:41:56;45.55;;;18.33;;
61200;SDS011;47065;52.898;6.992;2022-12-18T06:44:21;35.45;;;15.77;;
61200;SDS011;47065;52.898;6.992;2022-12-18T06:46:47;43.85;;;17.27;;
61200;SDS011;47065;52.898;6.992;2022-12-18T06:49:13;33.70;;;14.98;;
61200;SDS011;47065;52.898;6.992;2022-12-18T06:51:38;38.10;;;15.25;;
61200;SDS011;47065;52.898;6.992;2022-12-18T06:54:04;43.00;;;15.65;;
61200;SDS011;47065;52.898;6.992;2022-12-18T06:56:30;40.67;;;16.50;;
61200;SDS011;47065;52.898;6.992;2022-12-18T06:58:56;41.72;;;16.55;;
61200;SDS011;47065;52.898;6.992;2022-12-18T07:01:22;38.20;;;15.88;;
61200;SDS011;47065;52.898;6.992;2022-12-18T07:03:51;40.13;;;16.60;;
61200;SDS011;47065;52.898;6.992;2022-12-18T07:06:21;38.00;;;17.13;;
61200;SDS011;47065;52.898;6.992;2022-12-18T07:08:49;44.60;;;18.08;;
61200;SDS011;47065;52.898;6.992;2022-12-18T07:11:15;35.72;;;16.30;;
61200;SDS011;47065;52.898;6.992;2022-12-18T07:13:42;46.55;;;18.60;;
61200;SDS011;47065;52.898;6.992;2022-12-18T07:16:09;37.47;;;15.27;;
61200;SDS011;47065;52.898;6.992;2022-12-18T07:18:47;33.95;;;16.30;;
61200;SDS011;47065;52.898;6.992;2022-12-18T07:21:13;42.17;;;17.25;;
61200;SDS011;47065;52.898;6.992;2022-12-18T07:23:41;42.30;;;17.50;;
61200;SDS011;47065;52.898;6.992;2022-12-18T07:26:10;40.92;;;17.80;;
61200;SDS011;47065;52.898;6.992;2022-12-18T07:28:38;44.35;;;15.77;;
61200;SDS011;47065;52.898;6.992;2022-12-18T07:31:05;34.65;;;15.25;;
61200;SDS011;47065;52.898;6.992;2022-12-18T07:33:32;39.78;;;16.58;;
61200;SDS011;47065;52.898;6.992;2022-12-18T07:35:59;35.33;;;16.98;;
61200;SDS011;47065;52.898;6.992;2022-12-18T07:38:29;38.13;;;17.33;;
61200;SDS011;47065;52.898;6.992;2022-12-18T07:40:59;32.72;;;15.20;;
61200;SDS011;47065;52.898;6.992;2022-12-18T07:43:29;32.78;;;15.13;;
61200;SDS011;47065;52.898;6.992;2022-12-18T07:45:55;42.03;;;15.90;;
61200;SDS011;47065;52.898;6.992;2022-12-18T07:48:21;38.05;;;15.52;;
61200;SDS011;47065;52.898;6.992;2022-12-18T07:50:46;30.77;;;14.77;;
61200;SDS011;47065;52.898;6.992;2022-12-18T07:53:12;33.30;;;13.75;;
61200;SDS011;47065;52.898;6.992;2022-12-18T07:55:39;31.67;;;14.05;;
61200;SDS011;47065;52.898;6.992;2022-12-18T07:58:06;39.63;;;16.27;;
61200;SDS011;47065;52.898;6.992;2022-12-18T08:00:32;32.13;;;15.88;;
61200;SDS011;47065;52.898;6.992;2022-12-18T08:02:58;28.95;;;14.60;;
61200;SDS011;47065;52.898;6.992;2022-12-18T08:05:24;30.80;;;13.70;;
61200;SDS011;47065;52.898;6.992;2022-12-18T08:07:50;41.38;;;14.68;;
61200;SDS011;47065;52.898;6.992;2022-12-18T08:10:15;30.52;;;14.38;;
61200;SDS011;47065;52.898;6.992;2022-12-18T08:12:41;40.00;;;14.38;;
61200;SDS011;47065;52.898;6.992;2022-12-18T08:15:07;28.90;;;14.95;;
61200;SDS011;47065;52.898;6.992;2022-12-18T08:17:33;36.10;;;14.25;;
61200;SDS011;47065;52.898;6.992;2022-12-18T08:19:58;26.02;;;14.75;;
61200;SDS011;47065;52.898;6.992;2022-12-18T08:22:24;31.70;;;14.60;;
61200;SDS011;47065;52.898;6.992;2022-12-18T08:24:50;41.03;;;13.95;;
61200;SDS011;47065;52.898;6.992;2022-12-18T08:27:16;32.00;;;13.90;;
61200;SDS011;47065;52.898;6.992;2022-12-18T08:29:41;30.17;;;12.85;;
61200;SDS011;47065;52.898;6.992;2022-12-18T08:32:07;29.45;;;13.18;;
61200;SDS011;47065;52.898;6.992;2022-12-18T08:34:33;36.35;;;15.10;;
61200;SDS011;47065;52.898;6.992;2022-12-18T08:36:59;28.48;;;13.55;;
61200;SDS011;47065;52.898;6.992;2022-12-18T08:39:24;23.50;;;11.88;;
61200;SDS011;47065;52.898;6.992;2022-12-18T08:41:50;26.25;;;13.85;;
61200;SDS011;47065;52.898;6.992;2022-12-18T08:44:34;24.60;;;13.43;;
61200;SDS011;47065;52.898;6.992;2022-12-18T08:47:02;29.00;;;12.48;;
61200;SDS011;47065;52.898;6.992;2022-12-18T08:49:29;28.17;;;13.80;;
61200;SDS011;47065;52.898;6.992;2022-12-18T08:51:55;33.72;;;14.35;;
61200;SDS011;47065;52.898;6.992;2022-12-18T08:54:22;19.42;;;11.32;;
61200;SDS011;47065;52.898;6.992;2022-12-18T08:56:48;23.35;;;11.30;;
61200;SDS011;47065;52.898;6.992;2022-12-18T08:59:15;19.45;;;10.13;;
61200;SDS011;47065;52.898;6.992;2022-12-18T09:01:44;21.83;;;10.32;;
61200;SDS011;47065;52.898;6.992;2022-12-18T09:04:10;22.25;;;11.60;;
61200;SDS011;47065;52.898;6.992;2022-12-18T09:06:36;17.42;;;10.57;;
61200;SDS011;47065;52.898;6.992;2022-12-18T09:09:03;22.50;;;11.23;;
61200;SDS011;47065;52.898;6.992;2022-12-18T09:11:29;19.05;;;9.35;;
61200;SDS011;47065;52.898;6.992;2022-12-18T09:13:56;21.35;;;11.25;;
61200;SDS011;47065;52.898;6.992;2022-12-18T09:16:22;20.85;;;10.57;;
61200;SDS011;47065;52.898;6.992;2022-12-18T09:18:49;24.42;;;10.75;;
61200;SDS011;47065;52.898;6.992;2022-12-18T09:21:16;18.30;;;9.50;;
61200;SDS011;47065;52.898;6.992;2022-12-18T09:23:48;21.65;;;9.82;;
61200;SDS011;47065;52.898;6.992;2022-12-18T09:26:15;19.83;;;9.93;;
61200;SDS011;47065;52.898;6.992;2022-12-18T09:28:41;18.92;;;9.13;;
61200;SDS011;47065;52.898;6.992;2022-12-18T09:31:07;22.13;;;10.02;;
61200;SDS011;47065;52.898;6.992;2022-12-18T09:33:34;20.77;;;10.23;;
61200;SDS011;47065;52.898;6.992;2022-12-18T09:36:02;19.60;;;9.98;;
61200;SDS011;47065;52.898;6.992;2022-12-18T09:38:29;22.10;;;9.15;;
61200;SDS011;47065;52.898;6.992;2022-12-18T09:40:59;15.68;;;9.73;;
61200;SDS011;47065;52.898;6.992;2022-12-18T09:46:01;16.67;;;8.80;;
61200;SDS011;47065;52.898;6.992;2022-12-18T09:48:32;16.67;;;9.77;;
61200;SDS011;47065;52.898;6.992;2022-12-18T09:51:02;15.32;;;8.23;;
61200;SDS011;47065;52.898;6.992;2022-12-18T09:53:35;14.38;;;7.63;;
61200;SDS011;47065;52.898;6.992;2022-12-18T09:56:03;12.65;;;7.20;;
61200;SDS011;47065;52.898;6.992;2022-12-18T09:58:39;15.27;;;7.72;;
61200;SDS011;47065;52.898;6.992;2022-12-18T10:01:15;13.05;;;7.30;;
61200;SDS011;47065;52.898;6.992;2022-12-18T10:03:45;16.30;;;6.78;;
61200;SDS011;47065;52.898;6.992;2022-12-18T10:06:26;13.25;;;7.30;;
61200;SDS011;47065;52.898;6.992;2022-12-18T10:12:35;12.40;;;6.97;;
61200;SDS011;47065;52.898;6.992;2022-12-18T10:15:17;12.07;;;7.03;;
61200;SDS011;47065;52.898;6.992;2022-12-18T10:18:21;10.82;;;5.55;;
61200;SDS011;47065;52.898;6.992;2022-12-18T10:23:19;10.15;;;5.70;;
61200;SDS011;47065;52.898;6.992;2022-12-18T10:26:02;11.30;;;6.47;;
61200;SDS011;47065;52.898;6.992;2022-12-18T10:28:33;11.48;;;5.82;;
61200;SDS011;47065;52.898;6.992;2022-12-18T10:31:01;12.15;;;6.03;;
61200;SDS011;47065;52.898;6.992;2022-12-18T10:33:30;9.55;;;6.45;;
61200;SDS011;47065;52.898;6.992;2022-12-18T10:35:57;11.68;;;6.43;;
61200;SDS011;47065;52.898;6.992;2022-12-18T10:38:30;9.27;;;5.40;;
61200;SDS011;47065;52.898;6.992;2022-12-18T10:41:01;12.18;;;5.45;;
61200;SDS011;47065;52.898;6.992;2022-12-18T10:43:37;11.93;;;5.75;;
61200;SDS011;47065;52.898;6.992;2022-12-18T10:48:55;9.85;;;5.53;;
61200;SDS011;47065;52.898;6.992;2022-12-18T10:54:05;9.80;;;5.82;;
61200;SDS011;47065;52.898;6.992;2022-12-18T10:56:39;8.63;;;4.90;;
61200;SDS011;47065;52.898;6.992;2022-12-18T10:59:09;8.80;;;4.85;;
61200;SDS011;47065;52.898;6.992;2022-12-18T11:01:47;9.40;;;4.95;;
61200;SDS011;47065;52.898;6.992;2022-12-18T11:04:35;8.45;;;5.57;;
61200;SDS011;47065;52.898;6.992;2022-12-18T11:07:16;9.63;;;5.30;;
61200;SDS011;47065;52.898;6.992;2022-12-18T11:09:42;9.27;;;5.80;;
61200;SDS011;47065;52.898;6.992;2022-12-18T11:12:18;7.07;;;4.43;;
61200;SDS011;47065;52.898;6.992;2022-12-18T11:14:52;14.45;;;5.63;;
61200;SDS011;47065;52.898;6.992;2022-12-18T11:17:25;11.55;;;4.50;;
61200;SDS011;47065;52.898;6.992;2022-12-18T11:20:00;11.90;;;5.05;;
61200;SDS011;47065;52.898;6.992;2022-12-18T11:22:28;10.10;;;5.38;;
61200;SDS011;47065;52.898;6.992;2022-12-18T11:25:00;14.52;;;6.15;;
61200;SDS011;47065;52.898;6.992;2022-12-18T11:27:30;10.68;;;5.13;;
61200;SDS011;47065;52.898;6.992;2022-12-18T11:32:41;13.23;;;5.35;;
61200;SDS011;47065;52.898;6.992;2022-12-18T11:37:53;9.55;;;4.70;;
61200;SDS011;47065;52.898;6.992;2022-12-18T11:40:29;10.52;;;5.43;;
61200;SDS011;47065;52.898;6.992;2022-12-18T11:43:06;9.30;;;4.78;;
61200;SDS011;47065;52.898;6.992;2022-12-18T11:45:40;8.93;;;5.00;;
61200;SDS011;47065;52.898;6.992;2022-12-18T11:48:22;11.75;;;5.63;;
61200;SDS011;47065;52.898;6.992;2022-12-18T11:50:57;9.30;;;5.03;;
61200;SDS011;47065;52.898;6.992;2022-12-18T11:53:26;8.23;;;5.00;;
61200;SDS011;47065;52.898;6.992;2022-12-18T11:58:46;8.63;;;5.57;;
61200;SDS011;47065;52.898;6.992;2022-12-18T12:18:13;12.15;;;5.35;;
61200;SDS011;47065;52.898;6.992;2022-12-18T12:21:07;8.85;;;5.00;;
61200;SDS011;47065;52.898;6.992;2022-12-18T12:23:50;9.32;;;5.60;;
61200;SDS011;47065;52.898;6.992;2022-12-18T12:39:10;10.50;;;5.50;;
61200;SDS011;47065;52.898;6.992;2022-12-18T12:41:40;12.20;;;5.97;;
61200;SDS011;47065;52.898;6.992;2022-12-18T12:44:30;10.23;;;5.47;;
61200;SDS011;47065;52.898;6.992;2022-12-18T12:47:00;10.57;;;5.45;;
61200;SDS011;47065;52.898;6.992;2022-12-18T12:49:31;10.50;;;5.78;;
61200;SDS011;47065;52.898;6.992;2022-12-18T12:52:00;10.13;;;6.68;;
61200;SDS011;47065;52.898;6.992;2022-12-18T12:54:28;14.05;;;6.38;;
61200;SDS011;47065;52.898;6.992;2022-12-18T12:57:07;11.15;;;6.05;;
61200;SDS011;47065;52.898;6.992;2022-12-18T13:00:03;13.35;;;6.68;;
61200;SDS011;47065;52.898;6.992;2022-12-18T13:05:17;14.25;;;6.55;;
61200;SDS011;47065;52.898;6.992;2022-12-18T13:07:50;11.10;;;6.75;;
61200;SDS011;47065;52.898;6.992;2022-12-18T13:10:24;12.98;;;7.00;;
61200;SDS011;47065;52.898;6.992;2022-12-18T13:12:56;10.68;;;6.10;;
61200;SDS011;47065;52.898;6.992;2022-12-18T13:28:16;11.93;;;6.75;;
61200;SDS011;47065;52.898;6.992;2022-12-18T13:30:47;13.55;;;7.35;;
61200;SDS011;47065;52.898;6.992;2022-12-18T13:38:22;12.70;;;6.32;;
61200;SDS011;47065;52.898;6.992;2022-12-18T13:40:57;12.95;;;6.82;;
61200;SDS011;47065;52.898;6.992;2022-12-18T13:46:06;12.93;;;7.20;;
61200;SDS011;47065;52.898;6.992;2022-12-18T13:51:28;16.10;;;6.85;;
61200;SDS011;47065;52.898;6.992;2022-12-18T13:53:58;11.55;;;6.90;;
61200;SDS011;47065;52.898;6.992;2022-12-18T13:56:28;15.57;;;9.18;;
61200;SDS011;47065;52.898;6.992;2022-12-18T14:01:46;14.30;;;7.18;;
61200;SDS011;47065;52.898;6.992;2022-12-18T14:06:48;12.00;;;7.57;;
61200;SDS011;47065;52.898;6.992;2022-12-18T14:09:27;16.20;;;7.53;;
61200;SDS011;47065;52.898;6.992;2022-12-18T14:11:55;17.95;;;7.68;;
61200;SDS011;47065;52.898;6.992;2022-12-18T14:14:42;14.60;;;7.03;;
61200;SDS011;47065;52.898;6.992;2022-12-18T14:17:12;13.43;;;8.20;;
61200;SDS011;47065;52.898;6.992;2022-12-18T14:19:45;17.02;;;8.20;;
61200;SDS011;47065;52.898;6.992;2022-12-18T14:24:43;14.20;;;8.35;;
61200;SDS011;47065;52.898;6.992;2022-12-18T14:27:23;15.38;;;8.18;;
61200;SDS011;47065;52.898;6.992;2022-12-18T14:29:50;19.10;;;7.97;;
61200;SDS011;47065;52.898;6.992;2022-12-18T14:32:17;13.90;;;8.15;;
61200;SDS011;47065;52.898;6.992;2022-12-18T14:34:44;15.55;;;7.18;;
61200;SDS011;47065;52.898;6.992;2022-12-18T14:37:10;16.90;;;9.02;;
61200;SDS011;47065;52.898;6.992;2022-12-18T14:39:37;14.55;;;7.60;;
61200;SDS011;47065;52.898;6.992;2022-12-18T14:42:03;13.70;;;8.43;;
61200;SDS011;47065;52.898;6.992;2022-12-18T14:44:29;13.02;;;8.45;;
61200;SDS011;47065;52.898;6.992;2022-12-18T14:46:54;16.15;;;8.98;;
61200;SDS011;47065;52.898;6.992;2022-12-18T14:49:31;15.05;;;9.20;;
61200;SDS011;47065;52.898;6.992;2022-12-18T14:52:02;14.95;;;8.45;;
61200;SDS011;47065;52.898;6.992;2022-12-18T14:54:30;13.02;;;8.15;;
61200;SDS011;47065;52.898;6.992;2022-12-18T14:56:59;13.60;;;7.82;;
61200;SDS011;47065;52.898;6.992;2022-12-18T14:59:47;15.60;;;8.45;;
61200;SDS011;47065;52.898;6.992;2022-12-18T15:02:25;13.05;;;7.65;;
61200;SDS011;47065;52.898;6.992;2022-12-18T15:07:39;13.45;;;9.07;;
61200;SDS011;47065;52.898;6.992;2022-12-18T15:13:15;15.68;;;8.52;;
61200;SDS011;47065;52.898;6.992;2022-12-18T15:15:44;13.50;;;8.40;;
61200;SDS011;47065;52.898;6.992;2022-12-18T15:18:11;19.08;;;9.27;;
61200;SDS011;47065;52.898;6.992;2022-12-18T15:20:45;21.85;;;10.68;;
61200;SDS011;47065;52.898;6.992;2022-12-18T15:25:49;16.85;;;8.75;;
61200;SDS011;47065;52.898;6.992;2022-12-18T15:28:43;14.68;;;8.50;;
61200;SDS011;47065;52.898;6.992;2022-12-18T15:33:43;17.92;;;9.10;;
61200;SDS011;47065;52.898;6.992;2022-12-18T15:36:29;16.88;;;9.63;;
61200;SDS011;47065;52.898;6.992;2022-12-18T15:38:55;14.68;;;8.20;;
61200;SDS011;47065;52.898;6.992;2022-12-18T15:41:22;14.27;;;7.53;;
61200;SDS011;47065;52.898;6.992;2022-12-18T15:43:49;13.60;;;7.50;;
61200;SDS011;47065;52.898;6.992;2022-12-18T15:48:46;16.58;;;8.68;;
61200;SDS011;47065;52.898;6.992;2022-12-18T15:51:14;14.18;;;8.32;;
61200;SDS011;47065;52.898;6.992;2022-12-18T15:53:50;17.67;;;8.40;;
61200;SDS011;47065;52.898;6.992;2022-12-18T15:56:19;14.85;;;8.63;;
61200;SDS011;47065;52.898;6.992;2022-12-18T15:59:07;17.00;;;9.02;;
61200;SDS011;47065;52.898;6.992;2022-12-18T16:01:39;14.73;;;8.52;;
61200;SDS011;47065;52.898;6.992;2022-12-18T16:04:06;15.45;;;8.52;;
61200;SDS011;47065;52.898;6.992;2022-12-18T16:06:31;17.48;;;9.35;;
61200;SDS011;47065;52.898;6.992;2022-12-18T16:08:57;14.15;;;8.18;;
61200;SDS011;47065;52.898;6.992;2022-12-18T16:11:24;20.88;;;9.98;;
61200;SDS011;47065;52.898;6.992;2022-12-18T16:14:06;15.15;;;8.07;;
61200;SDS011;47065;52.898;6.992;2022-12-18T16:16:31;15.95;;;9.07;;
61200;SDS011;47065;52.898;6.992;2022-12-18T16:18:57;16.85;;;8.98;;
61200;SDS011;47065;52.898;6.992;2022-12-18T16:21:23;15.05;;;8.65;;
61200;SDS011;47065;52.898;6.992;2022-12-18T16:23:48;16.85;;;8.38;;
61200;SDS011;47065;52.898;6.992;2022-12-18T16:26:14;14.90;;;7.70;;
61200;SDS011;47065;52.898;6.992;2022-12-18T16:28:39;14.40;;;7.60;;
61200;SDS011;47065;52.898;6.992;2022-12-18T16:31:05;15.13;;;8.75;;
61200;SDS011;47065;52.898;6.992;2022-12-18T16:33:30;15.52;;;7.75;;
61200;SDS011;47065;52.898;6.992;2022-12-18T16:35:56;14.98;;;8.80;;
61200;SDS011;47065;52.898;6.992;2022-12-18T16:38:22;13.20;;;7.55;;
61200;SDS011;47065;52.898;6.992;2022-12-18T16:40:47;13.10;;;8.80;;
61200;SDS011;47065;52.898;6.992;2022-12-18T16:43:31;10.50;;;7.10;;
61200;SDS011;47065;52.898;6.992;2022-12-18T16:45:58;14.27;;;7.65;;
61200;SDS011;47065;52.898;6.992;2022-12-18T16:48:24;12.90;;;8.18;;
61200;SDS011;47065;52.898;6.992;2022-12-18T16:50:49;14.98;;;8.07;;
61200;SDS011;47065;52.898;6.992;2022-12-18T16:53:24;22.13;;;9.27;;
61200;SDS011;47065;52.898;6.992;2022-12-18T16:55:53;19.60;;;8.20;;